createdAt,value
2018-01-27T00:00:41.182Z,29.30
2018-01-27T00:01:41.171Z,30.80
2018-01-27T00:02:41.160Z,30.60
2018-01-27T00:03:41.153Z,29.70
2018-01-27T00:04:41.153Z,29.00
2018-01-27T00:05:41.136Z,31.00
2018-01-27T00:06:41.127Z,29.90
2018-01-27T00:07:41.111Z,30.90
2018-01-27T00:08:41.108Z,29.90
2018-01-27T00:09:41.090Z,30.90
2018-01-27T00:10:41.085Z,30.60
2018-01-27T00:11:41.077Z,30.30
2018-01-27T00:12:41.064Z,30.20
2018-01-27T00:13:41.053Z,29.40
2018-01-27T00:14:41.043Z,30.10
2018-01-27T00:15:41.034Z,29.00
2018-01-27T00:16:41.040Z,30.10
2018-01-27T00:17:41.021Z,30.80
2018-01-27T00:18:41.005Z,28.60
2018-01-27T00:19:41.008Z,32.50
2018-01-27T00:20:40.980Z,42.10
2018-01-27T00:21:40.977Z,41.60
2018-01-27T00:22:40.962Z,43.10
2018-01-27T00:23:40.950Z,34.00
2018-01-27T00:24:40.945Z,33.80
2018-01-27T00:25:40.931Z,34.10
2018-01-27T00:26:40.924Z,31.40
2018-01-27T00:27:40.909Z,29.40
2018-01-27T00:28:40.905Z,29.80
2018-01-27T00:29:40.890Z,28.90
2018-01-27T00:30:40.885Z,30.00
2018-01-27T00:31:40.870Z,30.00
2018-01-27T00:32:40.864Z,28.60
2018-01-27T00:33:40.854Z,28.80
2018-01-27T00:34:40.840Z,28.70
2018-01-27T00:35:40.835Z,29.80
2018-01-27T00:36:40.823Z,29.60
2018-01-27T00:37:40.813Z,29.50
2018-01-27T00:38:40.809Z,30.30
2018-01-27T00:39:40.799Z,29.20
2018-01-27T00:40:40.813Z,28.70
2018-01-27T00:41:40.779Z,30.70
2018-01-27T00:42:42.111Z,28.20
2018-01-27T00:43:40.781Z,29.90
2018-01-27T00:44:40.749Z,28.70
2018-01-27T00:45:40.734Z,28.60
2018-01-27T00:46:40.722Z,29.30
2018-01-27T00:47:40.716Z,31.00
2018-01-27T00:48:40.706Z,30.40
2018-01-27T00:49:40.696Z,29.50
2018-01-27T00:50:40.689Z,29.50
2018-01-27T00:51:40.674Z,30.70
2018-01-27T00:52:40.662Z,31.10
2018-01-27T00:53:40.652Z,31.10
2018-01-27T00:54:40.642Z,29.90
2018-01-27T00:55:40.645Z,30.60
2018-01-27T00:56:40.624Z,30.90
2018-01-27T00:57:40.617Z,30.50
2018-01-27T00:58:40.613Z,30.90
2018-01-27T00:59:40.593Z,30.30
2018-01-27T01:00:40.587Z,32.50
2018-01-27T01:01:40.573Z,30.00
2018-01-27T01:02:40.561Z,31.40
2018-01-27T01:03:40.565Z,31.30
2018-01-27T01:04:40.544Z,31.70
2018-01-27T01:05:40.542Z,31.70
2018-01-27T01:06:40.537Z,30.60
2018-01-27T01:07:40.514Z,32.20
2018-01-27T01:08:40.505Z,31.50
2018-01-27T01:09:40.494Z,30.90
2018-01-27T01:10:40.485Z,31.50
2018-01-27T01:11:40.474Z,32.90
2018-01-27T01:12:40.460Z,31.70
2018-01-27T01:13:40.490Z,31.10
2018-01-27T01:14:40.443Z,32.20
2018-01-27T01:15:40.477Z,30.60
2018-01-27T01:16:40.423Z,30.90
2018-01-27T01:17:40.414Z,31.70
2018-01-27T01:18:40.427Z,30.40
2018-01-27T01:19:40.408Z,31.90
2018-01-27T01:20:40.387Z,31.70
2018-01-27T01:21:40.372Z,31.20
2018-01-27T01:22:40.363Z,32.60
2018-01-27T01:23:40.353Z,31.70
2018-01-27T01:24:40.342Z,32.50
2018-01-27T01:25:40.333Z,32.20
2018-01-27T01:26:40.320Z,30.90
2018-01-27T01:27:40.312Z,32.80
2018-01-27T01:28:40.302Z,32.10
2018-01-27T01:29:40.290Z,31.40
2018-01-27T01:30:40.281Z,31.30
2018-01-27T01:31:40.271Z,32.90
2018-01-27T01:32:40.255Z,31.60
2018-01-27T01:33:40.251Z,31.40
2018-01-27T01:34:40.237Z,32.10
2018-01-27T01:35:40.232Z,32.70
2018-01-27T01:36:40.226Z,32.30
2018-01-27T01:37:40.212Z,31.50
2018-01-27T01:38:40.200Z,33.80
2018-01-27T01:39:40.189Z,33.70
2018-01-27T01:40:40.176Z,32.70
2018-01-27T01:41:40.189Z,33.40
2018-01-27T01:42:40.163Z,32.20
2018-01-27T01:43:40.149Z,32.70
2018-01-27T01:44:40.140Z,33.20
2018-01-27T01:45:40.133Z,33.40
2018-01-27T01:46:40.117Z,32.00
2018-01-27T01:47:40.110Z,34.40
2018-01-27T01:48:40.103Z,34.60
2018-01-27T01:49:40.090Z,32.80
2018-01-27T01:50:40.082Z,33.60
2018-01-27T01:51:40.070Z,33.70
2018-01-27T01:52:40.059Z,32.90
2018-01-27T01:53:40.051Z,34.20
2018-01-27T01:54:40.042Z,34.60
2018-01-27T01:55:40.030Z,35.20
2018-01-27T01:56:40.020Z,34.40
2018-01-27T01:57:40.012Z,34.60
2018-01-27T01:58:39.994Z,34.00
2018-01-27T01:59:39.992Z,35.20
2018-01-27T02:00:39.983Z,35.50
2018-01-27T02:01:39.968Z,34.30
2018-01-27T02:02:39.961Z,35.00
2018-01-27T02:03:39.956Z,35.70
2018-01-27T02:04:39.939Z,35.30
2018-01-27T02:05:39.927Z,34.00
2018-01-27T02:06:39.918Z,35.80
2018-01-27T02:07:39.909Z,36.20
2018-01-27T02:08:39.896Z,34.30
2018-01-27T02:09:39.889Z,35.70
2018-01-27T02:10:39.876Z,36.00
2018-01-27T02:11:39.866Z,35.20
2018-01-27T02:12:39.874Z,35.30
2018-01-27T02:13:39.846Z,35.60
2018-01-27T02:14:39.835Z,34.60
2018-01-27T02:15:39.824Z,36.20
2018-01-27T02:16:39.816Z,36.30
2018-01-27T02:17:39.803Z,35.10
2018-01-27T02:18:39.793Z,35.70
2018-01-27T02:19:39.802Z,35.10
2018-01-27T02:20:39.776Z,36.90
2018-01-27T02:21:39.801Z,35.70
2018-01-27T02:22:39.756Z,35.00
2018-01-27T02:23:39.743Z,35.20
2018-01-27T02:24:39.736Z,35.70
2018-01-27T02:25:39.726Z,35.30
2018-01-27T02:26:39.717Z,35.50
2018-01-27T02:27:39.706Z,35.00
2018-01-27T02:28:39.695Z,35.70
2018-01-27T02:29:39.684Z,34.50
2018-01-27T02:30:39.674Z,35.50
2018-01-27T02:31:39.665Z,37.00
2018-01-27T02:32:39.657Z,36.40
2018-01-27T02:33:39.645Z,36.60
2018-01-27T02:34:39.635Z,37.70
2018-01-27T02:35:39.622Z,37.40
2018-01-27T02:36:39.613Z,36.00
2018-01-27T02:37:39.610Z,37.80
2018-01-27T02:38:39.600Z,37.50
2018-01-27T02:39:39.584Z,36.70
2018-01-27T02:40:39.576Z,37.80
2018-01-27T02:41:39.566Z,37.40
2018-01-27T02:42:39.554Z,37.40
2018-01-27T02:43:39.552Z,38.20
2018-01-27T02:44:39.535Z,36.20
2018-01-27T02:45:39.521Z,35.40
2018-01-27T02:46:39.513Z,36.00
2018-01-27T02:47:39.501Z,37.20
2018-01-27T02:48:39.494Z,37.30
2018-01-27T02:49:39.481Z,37.10
2018-01-27T02:50:39.472Z,37.40
2018-01-27T02:51:39.462Z,37.80
2018-01-27T02:52:39.453Z,37.00
2018-01-27T02:53:39.442Z,37.70
2018-01-27T02:54:39.433Z,38.00
2018-01-27T02:55:39.420Z,38.10
2018-01-27T02:56:39.415Z,37.80
2018-01-27T02:57:39.400Z,37.70
2018-01-27T02:58:39.391Z,38.30
2018-01-27T02:59:39.380Z,36.90
2018-01-27T03:00:39.370Z,37.10
2018-01-27T03:01:39.358Z,38.70
2018-01-27T03:02:39.348Z,38.60
2018-01-27T03:03:39.339Z,37.60
2018-01-27T03:04:39.326Z,38.20
2018-01-27T03:05:39.318Z,36.50
2018-01-27T03:06:39.309Z,37.80
2018-01-27T03:07:39.297Z,37.60
2018-01-27T03:08:39.291Z,38.40
2018-01-27T03:09:39.305Z,38.50
2018-01-27T03:10:39.266Z,37.60
2018-01-27T03:11:39.253Z,38.40
2018-01-27T03:12:39.249Z,38.20
2018-01-27T03:13:39.235Z,36.50
2018-01-27T03:14:39.226Z,37.50
2018-01-27T03:15:39.222Z,37.50
2018-01-27T03:16:39.206Z,39.70
2018-01-27T03:17:39.197Z,38.80
2018-01-27T03:18:39.184Z,38.70
2018-01-27T03:19:39.174Z,38.30
2018-01-27T03:20:39.162Z,38.90
2018-01-27T03:21:39.158Z,38.90
2018-01-27T03:22:39.145Z,39.80
2018-01-27T03:23:39.134Z,38.70
2018-01-27T03:24:39.125Z,38.70
2018-01-27T03:25:39.111Z,38.50
2018-01-27T03:26:39.103Z,39.30
2018-01-27T03:27:39.095Z,39.50
2018-01-27T03:28:39.092Z,39.30
2018-01-27T03:29:39.074Z,39.60
2018-01-27T03:30:39.063Z,39.10
2018-01-27T03:31:39.057Z,39.90
2018-01-27T03:32:39.042Z,39.70
2018-01-27T03:33:39.037Z,37.90
2018-01-27T03:34:39.023Z,37.80
2018-01-27T03:35:39.013Z,38.30
2018-01-27T03:36:39.002Z,39.30
2018-01-27T03:37:38.991Z,38.80
2018-01-27T03:38:38.979Z,38.60
2018-01-27T03:39:38.969Z,39.00
2018-01-27T03:40:38.968Z,39.30
2018-01-27T03:41:38.949Z,39.10
2018-01-27T03:42:38.938Z,39.40
2018-01-27T03:43:38.930Z,39.80
2018-01-27T03:44:38.922Z,39.70
2018-01-27T03:45:38.906Z,39.70
2018-01-27T03:46:38.896Z,41.50
2018-01-27T03:47:38.891Z,40.50
2018-01-27T03:48:38.879Z,40.00
2018-01-27T03:49:38.865Z,40.10
2018-01-27T03:50:38.864Z,41.80
2018-01-27T03:51:38.848Z,41.20
2018-01-27T03:52:38.851Z,42.70
2018-01-27T03:53:38.826Z,41.80
2018-01-27T03:54:38.814Z,41.10
2018-01-27T03:55:38.805Z,41.60
2018-01-27T03:56:38.798Z,41.50
2018-01-27T03:57:38.792Z,42.60
2018-01-27T03:58:38.773Z,41.60
2018-01-27T03:59:38.764Z,42.40
2018-01-27T04:00:38.758Z,43.10
2018-01-27T04:01:38.743Z,42.00
2018-01-27T04:02:38.734Z,42.90
2018-01-27T04:03:38.728Z,42.90
2018-01-27T04:04:38.714Z,43.30
2018-01-27T04:05:38.704Z,41.80
2018-01-27T04:06:38.690Z,43.10
2018-01-27T04:07:38.680Z,42.20
2018-01-27T04:08:38.678Z,41.70
2018-01-27T04:09:38.664Z,41.60
2018-01-27T04:10:38.650Z,42.10
2018-01-27T04:11:38.640Z,43.70
2018-01-27T04:12:38.627Z,43.80
2018-01-27T04:13:38.615Z,43.00
2018-01-27T04:14:38.610Z,43.20
2018-01-27T04:15:38.602Z,44.70
2018-01-27T04:16:38.587Z,43.00
2018-01-27T04:17:38.579Z,42.60
2018-01-27T04:18:38.562Z,44.50
2018-01-27T04:19:38.555Z,43.00
2018-01-27T04:20:38.555Z,41.40
2018-01-27T04:21:38.536Z,42.00
2018-01-27T04:22:38.526Z,42.90
2018-01-27T04:23:38.514Z,42.40
2018-01-27T04:24:38.506Z,41.80
2018-01-27T04:25:38.495Z,39.90
2018-01-27T04:26:38.478Z,42.40
2018-01-27T04:27:38.487Z,43.00
2018-01-27T04:28:38.464Z,41.80
2018-01-27T04:29:38.455Z,42.40
2018-01-27T04:30:38.439Z,41.70
2018-01-27T04:31:38.431Z,42.20
2018-01-27T04:32:38.421Z,41.30
2018-01-27T04:33:38.410Z,43.10
2018-01-27T04:34:38.399Z,42.30
2018-01-27T04:35:38.391Z,41.10
2018-01-27T04:36:38.379Z,41.20
2018-01-27T04:37:38.370Z,44.10
2018-01-27T04:40:11.048Z,41.70
2018-01-27T04:41:10.979Z,41.50
2018-01-27T04:43:04.567Z,43.20
2018-01-27T04:44:04.530Z,42.10
2018-01-27T04:45:58.699Z,42.00
2018-01-27T04:46:58.682Z,42.30
2018-01-27T04:48:52.329Z,42.20
2018-01-27T04:49:52.293Z,42.10
2018-01-27T04:51:46.770Z,44.00
2018-01-27T04:52:46.543Z,42.50
2018-01-27T04:53:46.531Z,40.60
2018-01-27T04:54:46.523Z,41.80
2018-01-27T04:55:46.510Z,42.10
2018-01-27T04:56:46.502Z,42.40
2018-01-27T04:57:46.490Z,41.10
2018-01-27T04:58:46.481Z,42.60
2018-01-27T04:59:46.466Z,42.70
2018-01-27T05:00:46.459Z,41.20
2018-01-27T05:01:46.448Z,41.20
2018-01-27T05:02:46.459Z,40.70
2018-01-27T05:03:46.428Z,41.40
2018-01-27T05:04:46.421Z,40.40
2018-01-27T05:05:46.410Z,41.70
2018-01-27T05:06:46.400Z,41.90
2018-01-27T05:07:46.386Z,40.70
2018-01-27T05:08:46.373Z,39.90
2018-01-27T05:09:46.365Z,42.30
2018-01-27T05:10:46.354Z,42.40
2018-01-27T05:11:46.344Z,42.80
2018-01-27T05:12:46.332Z,41.80
2018-01-27T05:13:46.324Z,42.30
2018-01-27T05:14:46.312Z,41.20
2018-01-27T05:15:46.298Z,41.80
2018-01-27T05:16:46.299Z,42.20
2018-01-27T05:17:46.282Z,42.20
2018-01-27T05:18:46.269Z,42.00
2018-01-27T05:19:46.260Z,40.70
2018-01-27T05:20:46.250Z,42.40
2018-01-27T05:21:46.238Z,40.90
2018-01-27T05:22:46.229Z,39.50
2018-01-27T05:23:46.222Z,41.70
2018-01-27T05:24:46.208Z,39.70
2018-01-27T05:25:46.201Z,40.70
2018-01-27T05:26:46.195Z,40.50
2018-01-27T05:27:46.179Z,41.00
2018-01-27T05:28:46.168Z,41.00
2018-01-27T05:29:46.196Z,38.60
2018-01-27T05:30:46.147Z,40.80
2018-01-27T05:31:46.137Z,39.20
2018-01-27T05:32:46.130Z,40.80
2018-01-27T05:33:46.120Z,40.40
2018-01-27T05:34:46.111Z,39.40
2018-01-27T05:35:46.110Z,41.30
2018-01-27T05:36:46.085Z,40.70
2018-01-27T05:37:46.071Z,39.90
2018-01-27T05:38:46.061Z,40.90
2018-01-27T05:39:46.058Z,40.10
2018-01-27T05:40:46.049Z,39.10
2018-01-27T05:41:46.034Z,40.10
2018-01-27T05:42:46.025Z,39.80
2018-01-27T05:43:46.028Z,40.00
2018-01-27T05:44:46.008Z,38.20
2018-01-27T05:45:45.990Z,39.40
2018-01-27T05:46:46.008Z,38.60
2018-01-27T05:47:45.981Z,40.10
2018-01-27T05:48:45.960Z,39.40
2018-01-27T05:49:45.953Z,38.60
2018-01-27T05:50:45.942Z,39.10
2018-01-27T05:51:45.930Z,37.60
2018-01-27T05:52:45.920Z,39.00
2018-01-27T05:53:45.909Z,38.50
2018-01-27T05:54:45.901Z,38.30
2018-01-27T05:55:45.891Z,36.40
2018-01-27T05:56:45.878Z,38.50
2018-01-27T05:57:45.871Z,39.60
2018-01-27T05:58:45.861Z,38.80
2018-01-27T05:59:45.854Z,37.60
2018-01-27T06:00:45.837Z,38.80
2018-01-27T06:01:45.832Z,37.80
2018-01-27T06:02:45.815Z,38.90
2018-01-27T06:03:45.813Z,36.60
2018-01-27T06:04:45.794Z,35.70
2018-01-27T06:05:45.787Z,36.60
2018-01-27T06:06:45.780Z,37.10
2018-01-27T06:07:45.769Z,38.10
2018-01-27T06:08:45.756Z,37.50
2018-01-27T06:09:45.746Z,38.20
2018-01-27T06:10:45.736Z,37.80
2018-01-27T06:11:45.723Z,37.00
2018-01-27T06:12:45.714Z,36.80
2018-01-27T06:13:45.707Z,38.00
2018-01-27T06:14:45.695Z,37.40
2018-01-27T06:15:45.685Z,37.40
2018-01-27T06:16:45.681Z,36.90
2018-01-27T06:17:45.666Z,37.50
2018-01-27T06:18:45.666Z,37.10
2018-01-27T06:19:45.642Z,36.30
2018-01-27T06:20:45.628Z,39.00
2018-01-27T06:21:45.624Z,37.00
2018-01-27T06:22:45.609Z,37.40
2018-01-27T06:23:45.600Z,38.40
2018-01-27T06:24:45.591Z,36.80
2018-01-27T06:25:45.583Z,38.00
2018-01-27T06:26:45.566Z,38.90
2018-01-27T06:27:45.560Z,37.40
2018-01-27T06:28:45.563Z,39.00
2018-01-27T06:29:45.540Z,36.50
2018-01-27T06:30:45.544Z,37.50
2018-01-27T06:31:45.524Z,38.70
2018-01-27T06:32:45.512Z,38.40
2018-01-27T06:33:45.493Z,36.90
2018-01-27T06:34:45.487Z,38.00
2018-01-27T06:35:45.495Z,37.10
2018-01-27T06:36:45.470Z,37.80
2018-01-27T06:37:45.464Z,38.50
2018-01-27T06:38:45.450Z,37.40
2018-01-27T06:39:45.441Z,38.20
2018-01-27T06:40:45.425Z,37.70
2018-01-27T06:41:45.415Z,37.00
2018-01-27T06:42:45.408Z,36.90
2018-01-27T06:43:45.403Z,39.00
2018-01-27T06:44:45.386Z,38.30
2018-01-27T06:45:45.373Z,36.20
2018-01-27T06:46:45.365Z,37.70
2018-01-27T06:47:45.354Z,35.50
2018-01-27T06:48:45.345Z,36.40
2018-01-27T06:49:45.332Z,38.00
2018-01-27T06:50:45.326Z,36.00
2018-01-27T06:51:45.313Z,36.50
2018-01-27T06:52:45.307Z,35.50
2018-01-27T06:53:45.301Z,37.70
2018-01-27T06:54:45.292Z,36.30
2018-01-27T06:55:45.272Z,38.30
2018-01-27T06:56:45.262Z,36.30
2018-01-27T06:57:45.250Z,36.60
2018-01-27T06:58:45.244Z,37.60
2018-01-27T06:59:45.226Z,36.70
2018-01-27T07:00:45.223Z,36.60
2018-01-27T07:01:45.212Z,38.10
2018-01-27T07:02:45.203Z,35.50
2018-01-27T07:03:45.192Z,38.50
2018-01-27T07:04:45.183Z,35.80
2018-01-27T07:05:45.171Z,36.80
2018-01-27T07:06:45.162Z,35.20
2018-01-27T07:07:45.151Z,36.70
2018-01-27T07:08:45.143Z,35.10
2018-01-27T07:09:45.132Z,36.10
2018-01-27T07:10:45.117Z,36.70
2018-01-27T07:11:45.112Z,35.50
2018-01-27T07:12:45.107Z,36.40
2018-01-27T07:13:45.091Z,37.20
2018-01-27T07:14:45.081Z,36.40
2018-01-27T07:15:45.066Z,36.50
2018-01-27T07:16:45.056Z,38.20
2018-01-27T07:17:45.053Z,36.70
2018-01-27T07:18:45.045Z,36.40
2018-01-27T07:19:45.027Z,37.10
2018-01-27T07:20:45.020Z,38.60
2018-01-27T07:21:45.011Z,36.50
2018-01-27T07:22:44.996Z,39.10
2018-01-27T07:23:44.988Z,38.90
2018-01-27T07:24:44.979Z,38.00
2018-01-27T07:25:44.967Z,37.20
2018-01-27T07:26:44.955Z,36.60
2018-01-27T07:27:44.947Z,37.90
2018-01-27T07:28:44.931Z,38.50
2018-01-27T07:29:44.926Z,39.00
2018-01-27T07:30:44.917Z,38.70
2018-01-27T07:31:44.906Z,39.10
2018-01-27T07:32:44.894Z,39.80
2018-01-27T07:33:44.886Z,36.80
2018-01-27T07:34:44.870Z,38.40
2018-01-27T07:35:44.864Z,38.00
2018-01-27T07:36:44.855Z,39.00
2018-01-27T07:37:44.846Z,39.90
2018-01-27T07:38:44.832Z,38.20
2018-01-27T07:39:44.827Z,39.10
2018-01-27T07:40:44.814Z,39.00
2018-01-27T07:41:44.805Z,38.10
2018-01-27T07:42:44.797Z,38.40
2018-01-27T07:43:44.782Z,37.90
2018-01-27T07:44:44.773Z,39.10
2018-01-27T07:45:44.768Z,37.60
2018-01-27T07:46:44.804Z,39.50
2018-01-27T07:47:44.741Z,38.70
2018-01-27T07:48:44.735Z,38.00
2018-01-27T07:49:44.724Z,40.40
2018-01-27T07:50:44.712Z,36.70
2018-01-27T07:51:44.696Z,37.70
2018-01-27T07:52:44.692Z,38.10
2018-01-27T07:53:44.689Z,38.70
2018-01-27T07:54:44.670Z,37.70
2018-01-27T07:55:44.661Z,39.00
2018-01-27T07:56:44.660Z,39.20
2018-01-27T07:57:44.641Z,39.60
2018-01-27T07:58:44.632Z,39.80
2018-01-27T07:59:44.621Z,37.70
2018-01-27T08:00:44.612Z,37.70
2018-01-27T08:01:44.602Z,39.40
2018-01-27T08:02:44.592Z,39.40
2018-01-27T08:03:45.374Z,39.40
2018-01-27T08:04:44.569Z,38.70
2018-01-27T08:05:44.560Z,40.00
2018-01-27T08:06:44.544Z,40.70
2018-01-27T08:07:44.539Z,39.70
2018-01-27T08:08:44.540Z,39.70
2018-01-27T08:09:44.583Z,40.20
2018-01-27T08:10:44.509Z,41.40
2018-01-27T08:11:44.498Z,38.70
2018-01-27T08:12:44.488Z,40.70
2018-01-27T08:13:44.476Z,41.30
2018-01-27T08:14:44.495Z,40.70
2018-01-27T08:15:44.462Z,40.60
2018-01-27T08:16:44.471Z,40.70
2018-01-27T08:17:44.461Z,40.00
2018-01-27T08:18:44.460Z,41.10
2018-01-27T08:19:44.414Z,41.50
2018-01-27T08:20:44.404Z,40.90
2018-01-27T08:21:44.408Z,40.90
2018-01-27T08:22:44.389Z,40.90
2018-01-27T08:23:44.377Z,40.70
2018-01-27T08:24:44.365Z,40.10
2018-01-27T08:25:44.355Z,41.00
2018-01-27T08:26:44.404Z,41.00
2018-01-27T08:27:44.343Z,42.00
2018-01-27T08:28:44.326Z,41.00
2018-01-27T08:29:44.314Z,41.70
2018-01-27T08:30:44.303Z,40.40
2018-01-27T08:31:44.292Z,42.40
2018-01-27T08:32:44.283Z,41.30
2018-01-27T08:33:44.274Z,42.50
2018-01-27T08:34:44.263Z,41.10
2018-01-27T08:35:44.252Z,40.80
2018-01-27T08:36:44.241Z,41.40
2018-01-27T08:37:44.232Z,40.90
2018-01-27T08:38:44.218Z,40.00
2018-01-27T08:39:44.212Z,40.80
2018-01-27T08:40:44.199Z,41.60
2018-01-27T08:41:44.191Z,41.60
2018-01-27T08:42:44.185Z,42.10
2018-01-27T08:43:44.171Z,41.60
2018-01-27T08:44:44.160Z,41.00
2018-01-27T08:45:44.151Z,41.50
2018-01-27T08:46:44.139Z,40.80
2018-01-27T08:47:44.128Z,41.40
2018-01-27T08:48:44.121Z,42.40
2018-01-27T08:49:44.141Z,42.70
2018-01-27T08:50:44.101Z,40.90
2018-01-27T08:51:44.093Z,41.80
2018-01-27T08:52:44.080Z,42.60
2018-01-27T08:53:44.070Z,40.40
2018-01-27T08:54:44.056Z,41.80
2018-01-27T08:55:44.050Z,41.80
2018-01-27T08:56:44.037Z,40.70
2018-01-27T08:57:44.030Z,40.60
2018-01-27T08:58:44.019Z,40.70
2018-01-27T08:59:44.011Z,42.30
2018-01-27T09:00:43.998Z,40.90
2018-01-27T09:01:43.987Z,41.20
2018-01-27T09:02:43.977Z,41.80
2018-01-27T09:03:43.969Z,40.70
2018-01-27T09:04:43.958Z,40.40
2018-01-27T09:05:43.945Z,41.70
2018-01-27T09:06:43.938Z,40.40
2018-01-27T09:07:43.927Z,41.60
2018-01-27T09:08:43.917Z,40.30
2018-01-27T09:09:43.905Z,39.80
2018-01-27T09:10:43.898Z,41.50
2018-01-27T09:11:43.888Z,39.60
2018-01-27T09:12:43.879Z,39.30
2018-01-27T09:13:43.869Z,39.50
2018-01-27T09:14:43.863Z,40.10
2018-01-27T09:15:43.847Z,38.80
2018-01-27T09:16:43.840Z,38.30
2018-01-27T09:17:43.830Z,38.10
2018-01-27T09:18:43.822Z,37.10
2018-01-27T09:19:43.821Z,36.60
2018-01-27T09:20:43.803Z,38.10
2018-01-27T09:21:43.794Z,37.80
2018-01-27T09:22:43.784Z,36.70
2018-01-27T09:23:43.777Z,36.40
2018-01-27T09:24:43.763Z,36.00
2018-01-27T09:25:43.757Z,35.90
2018-01-27T09:26:43.750Z,37.30
2018-01-27T09:27:43.739Z,33.80
2018-01-27T09:28:43.728Z,35.50
2018-01-27T09:29:43.720Z,35.40
2018-01-27T09:30:43.712Z,36.10
2018-01-27T09:31:43.701Z,35.00
2018-01-27T09:32:43.691Z,34.40
2018-01-27T09:33:43.685Z,34.70
2018-01-27T09:34:43.674Z,33.60
2018-01-27T09:35:43.667Z,35.00
2018-01-27T09:36:43.651Z,34.30
2018-01-27T09:37:43.646Z,32.60
2018-01-27T09:38:43.638Z,34.60
2018-01-27T09:39:43.629Z,35.90
2018-01-27T09:40:43.624Z,33.70
2018-01-27T09:41:43.644Z,32.80
2018-01-27T09:42:43.604Z,31.80
2018-01-27T09:43:43.593Z,31.30
2018-01-27T09:44:43.587Z,31.30
2018-01-27T09:45:43.585Z,31.40
2018-01-27T09:46:43.574Z,31.80
2018-01-27T09:47:43.591Z,32.30
2018-01-27T09:48:43.558Z,30.90
2018-01-27T09:49:43.551Z,30.60
2018-01-27T09:50:43.541Z,30.40
2018-01-27T09:51:43.535Z,30.20
2018-01-27T09:52:43.532Z,30.40
2018-01-27T09:53:43.536Z,29.40
2018-01-27T09:54:43.524Z,31.20
2018-01-27T09:55:43.515Z,29.60
2018-01-27T09:56:43.512Z,29.30
2018-01-27T09:57:43.509Z,27.00
2018-01-27T09:58:43.498Z,26.00
2018-01-27T09:59:43.487Z,25.60
2018-01-27T10:00:43.487Z,26.10
2018-01-27T10:01:43.485Z,25.70
2018-01-27T10:02:43.482Z,25.50
2018-01-27T10:03:43.476Z,25.40
2018-01-27T10:04:43.476Z,26.10
2018-01-27T10:05:43.470Z,22.20
2018-01-27T10:06:43.466Z,22.60
2018-01-27T10:07:43.460Z,21.50
2018-01-27T10:08:43.450Z,21.90
2018-01-27T10:09:43.450Z,19.30
2018-01-27T10:10:43.448Z,21.00
2018-01-27T10:11:43.446Z,20.60
2018-01-27T10:12:43.442Z,20.00
2018-01-27T10:13:43.437Z,19.00
2018-01-27T10:14:43.436Z,17.10
2018-01-27T10:15:43.431Z,17.60
2018-01-27T10:16:43.429Z,17.50
2018-01-27T10:17:43.452Z,16.60
2018-01-27T10:18:43.423Z,17.50
2018-01-27T10:19:43.415Z,16.70
2018-01-27T10:20:43.413Z,17.60
2018-01-27T10:21:43.411Z,17.90
2018-01-27T10:22:43.425Z,17.60
2018-01-27T10:23:43.410Z,18.30
2018-01-27T10:24:43.403Z,18.40
2018-01-27T10:25:43.478Z,18.20
2018-01-27T10:26:43.396Z,19.20
2018-01-27T10:27:43.404Z,18.60
2018-01-27T10:28:43.387Z,19.40
2018-01-27T10:29:43.381Z,20.00
2018-01-27T10:30:43.377Z,20.10
2018-01-27T10:31:43.379Z,20.30
2018-01-27T10:32:43.396Z,20.90
2018-01-27T10:33:43.382Z,20.60
2018-01-27T10:34:43.362Z,22.40
2018-01-27T10:35:43.354Z,21.50
2018-01-27T10:36:43.348Z,23.50
2018-01-27T10:37:43.342Z,22.40
2018-01-27T10:38:43.337Z,24.00
2018-01-27T10:39:43.330Z,23.30
2018-01-27T10:40:43.329Z,24.30
2018-01-27T10:41:43.322Z,24.00
2018-01-27T10:42:43.313Z,25.10
2018-01-27T10:43:43.307Z,24.20
2018-01-27T10:44:43.295Z,24.30
2018-01-27T10:45:43.301Z,22.70
2018-01-27T10:46:43.312Z,24.90
2018-01-27T10:47:43.280Z,24.90
2018-01-27T10:48:43.270Z,24.10
2018-01-27T10:49:43.266Z,25.10
2018-01-27T10:50:43.256Z,24.70
2018-01-27T10:51:43.255Z,25.50
2018-01-27T10:52:43.244Z,25.10
2018-01-27T10:53:43.237Z,24.00
2018-01-27T10:54:43.231Z,24.20
2018-01-27T10:55:43.231Z,25.10
2018-01-27T10:56:43.217Z,25.20
2018-01-27T10:57:43.210Z,25.70
2018-01-27T10:58:43.209Z,25.60
2018-01-27T10:59:43.201Z,26.80
2018-01-27T11:00:43.192Z,26.00
2018-01-27T11:01:43.182Z,26.80
2018-01-27T11:02:43.180Z,26.50
2018-01-27T11:03:43.170Z,26.10
2018-01-27T11:04:43.171Z,27.50
2018-01-27T11:05:43.154Z,26.60
2018-01-27T11:06:43.149Z,25.70
2018-01-27T11:07:43.142Z,25.60
2018-01-27T11:08:43.131Z,25.60
2018-01-27T11:09:43.124Z,26.50
2018-01-27T11:10:43.118Z,25.50
2018-01-27T11:11:43.106Z,25.40
2018-01-27T11:12:43.101Z,26.30
2018-01-27T11:13:43.124Z,26.30
2018-01-27T11:14:43.083Z,26.30
2018-01-27T11:15:43.082Z,26.40
2018-01-27T11:16:43.077Z,27.60
2018-01-27T11:17:43.060Z,26.30
2018-01-27T11:18:43.060Z,26.50
2018-01-27T11:19:45.846Z,25.90
2018-01-27T11:20:44.802Z,26.70
2018-01-27T11:21:43.022Z,26.20
2018-01-27T11:22:43.055Z,26.20
2018-01-27T11:23:43.010Z,26.50
2018-01-27T11:24:43.000Z,26.40
2018-01-27T11:25:43.015Z,26.00
2018-01-27T11:26:42.983Z,26.80
2018-01-27T11:27:42.977Z,27.10
2018-01-27T11:28:42.964Z,27.00
2018-01-27T11:29:42.954Z,26.90
2018-01-27T11:30:42.951Z,24.70
2018-01-27T11:31:42.933Z,27.30
2018-01-27T11:32:42.985Z,27.60
2018-01-27T11:33:42.923Z,26.80
2018-01-27T11:34:42.911Z,27.40
2018-01-27T11:35:42.899Z,27.20
2018-01-27T11:36:42.926Z,26.50
2018-01-27T11:37:42.902Z,28.00
2018-01-27T11:38:42.888Z,28.30
2018-01-27T11:39:42.870Z,27.50
2018-01-27T11:40:42.874Z,27.00
2018-01-27T11:41:42.847Z,27.30
2018-01-27T11:42:42.838Z,27.70
2018-01-27T11:43:42.854Z,26.90
2018-01-27T11:44:42.832Z,28.70
2018-01-27T11:45:42.834Z,27.70
2018-01-27T11:46:42.805Z,28.00
2018-01-27T11:47:42.798Z,28.30
2018-01-27T11:48:42.783Z,29.70
2018-01-27T11:49:42.774Z,28.50
2018-01-27T11:50:42.784Z,29.30
2018-01-27T11:51:42.758Z,27.30
2018-01-27T11:52:42.762Z,27.70
2018-01-27T11:53:42.742Z,28.40
2018-01-27T11:54:42.740Z,28.00
2018-01-27T11:55:42.719Z,29.70
2018-01-27T11:56:42.714Z,27.50
2018-01-27T11:57:42.849Z,28.00
2018-01-27T11:58:42.694Z,27.70
2018-01-27T11:59:42.686Z,27.50
2018-01-27T12:00:42.676Z,26.80
2018-01-27T12:01:42.664Z,26.00
2018-01-27T12:02:42.659Z,26.90
2018-01-27T12:03:42.656Z,26.90
2018-01-27T12:04:42.688Z,25.90
2018-01-27T12:05:42.630Z,26.70
2018-01-27T12:06:42.629Z,26.10
2018-01-27T12:07:42.610Z,25.10
2018-01-27T12:08:42.604Z,26.90
2018-01-27T12:09:42.613Z,26.60
2018-01-27T12:10:42.596Z,24.80
2018-01-27T12:11:42.579Z,26.10
2018-01-27T12:12:42.571Z,25.90
2018-01-27T12:13:42.563Z,25.60
2018-01-27T12:14:42.547Z,26.90
2018-01-27T12:15:42.545Z,27.00
2018-01-27T12:16:42.540Z,25.20
2018-01-27T12:17:42.523Z,25.80
2018-01-27T12:18:42.516Z,25.40
2018-01-27T12:19:42.506Z,25.70
2018-01-27T12:20:42.513Z,25.40
2018-01-27T12:21:42.491Z,25.20
2018-01-27T12:22:42.487Z,25.50
2018-01-27T12:23:42.472Z,24.60
2018-01-27T12:24:42.465Z,24.60
2018-01-27T12:25:42.458Z,24.10
2018-01-27T12:26:42.448Z,23.10
2018-01-27T12:27:42.435Z,25.00
2018-01-27T12:28:42.425Z,24.70
2018-01-27T12:29:42.419Z,24.30
2018-01-27T12:30:42.418Z,24.40
2018-01-27T12:31:42.399Z,24.30
2018-01-27T12:32:42.391Z,24.40
2018-01-27T12:33:42.380Z,24.00
2018-01-27T12:34:42.380Z,24.40
2018-01-27T12:35:42.364Z,23.30
2018-01-27T12:36:42.358Z,24.70
2018-01-27T12:37:42.370Z,24.60
2018-01-27T12:38:42.340Z,24.50
2018-01-27T12:39:42.331Z,24.20
2018-01-27T12:40:42.324Z,23.50
2018-01-27T12:41:42.310Z,26.00
2018-01-27T12:42:42.305Z,26.90
2018-01-27T12:43:42.311Z,25.70
2018-01-27T12:44:42.291Z,24.50
2018-01-27T12:45:42.280Z,24.40
2018-01-27T12:46:42.267Z,25.40
2018-01-27T12:47:42.262Z,24.70
2018-01-27T12:48:42.247Z,25.80
2018-01-27T12:49:42.284Z,25.20
2018-01-27T12:50:42.241Z,25.20
2018-01-27T12:51:42.228Z,25.10
2018-01-27T12:52:42.211Z,25.10
2018-01-27T12:53:42.205Z,24.90
2018-01-27T12:54:42.206Z,25.50
2018-01-27T12:55:42.186Z,25.40
2018-01-27T12:56:42.171Z,25.40
2018-01-27T12:57:42.166Z,25.20